sensor_id;sensor_type;location;lat;lon;timestamp;temperature;humidity
37310;DHT22;23195;47.744;7.358;2024-02-21T00:01:08;6.60;99.90
37310;DHT22;23195;47.744;7.358;2024-02-21T00:03:34;6.60;99.90
37310;DHT22;23195;47.744;7.358;2024-02-21T00:05:59;6.50;99.90
37310;DHT22;23195;47.744;7.358;2024-02-21T00:08:25;6.50;99.90
37310;DHT22;23195;47.744;7.358;2024-02-21T00:10:51;6.50;99.90
37310;DHT22;23195;47.744;7.358;2024-02-21T00:13:17;6.50;99.90
37310;DHT22;23195;47.744;7.358;2024-02-21T00:15:43;6.60;99.90
37310;DHT22;23195;47.744;7.358;2024-02-21T00:18:08;6.60;99.90
37310;DHT22;23195;47.744;7.358;2024-02-21T00:20:36;6.60;99.90
37310;DHT22;23195;47.744;7.358;2024-02-21T00:23:02;6.60;99.90
37310;DHT22;23195;47.744;7.358;2024-02-21T00:25:28;6.60;99.90
37310;DHT22;23195;47.744;7.358;2024-02-21T00:27:54;6.10;99.90
37310;DHT22;23195;47.744;7.358;2024-02-21T00:30:19;6.60;99.90
37310;DHT22;23195;47.744;7.358;2024-02-21T00:32:46;6.70;99.90
37310;DHT22;23195;47.744;7.358;2024-02-21T00:35:12;6.70;99.90
37310;DHT22;23195;47.744;7.358;2024-02-21T00:37:37;6.70;99.90
37310;DHT22;23195;47.744;7.358;2024-02-21T00:40:04;6.70;99.90
37310;DHT22;23195;47.744;7.358;2024-02-21T00:42:30;6.70;99.90
37310;DHT22;23195;47.744;7.358;2024-02-21T00:44:59;6.60;99.90
37310;DHT22;23195;47.744;7.358;2024-02-21T00:47:25;6.60;99.90
37310;DHT22;23195;47.744;7.358;2024-02-21T00:49:51;6.70;99.90
37310;DHT22;23195;47.744;7.358;2024-02-21T00:52:16;6.70;99.90
37310;DHT22;23195;47.744;7.358;2024-02-21T00:54:42;6.80;99.90
37310;DHT22;23195;47.744;7.358;2024-02-21T00:57:08;6.80;99.90
37310;DHT22;23195;47.744;7.358;2024-02-21T00:59:37;6.80;99.90
37310;DHT22;23195;47.744;7.358;2024-02-21T01:02:03;6.80;99.90
37310;DHT22;23195;47.744;7.358;2024-02-21T01:04:29;6.90;99.90
37310;DHT22;23195;47.744;7.358;2024-02-21T01:06:55;6.90;99.90
37310;DHT22;23195;47.744;7.358;2024-02-21T01:09:24;6.90;99.90
37310;DHT22;23195;47.744;7.358;2024-02-21T01:11:49;6.90;99.90
37310;DHT22;23195;47.744;7.358;2024-02-21T01:14:18;6.90;99.90
37310;DHT22;23195;47.744;7.358;2024-02-21T01:16:44;6.90;99.90
37310;DHT22;23195;47.744;7.358;2024-02-21T01:19:09;6.90;99.90
37310;DHT22;23195;47.744;7.358;2024-02-21T01:21:35;6.90;99.90
37310;DHT22;23195;47.744;7.358;2024-02-21T01:24:10;6.90;99.90
37310;DHT22;23195;47.744;7.358;2024-02-21T01:26:35;6.90;99.90
37310;DHT22;23195;47.744;7.358;2024-02-21T01:29:01;6.90;99.90
37310;DHT22;23195;47.744;7.358;2024-02-21T01:31:30;6.90;99.90
37310;DHT22;23195;47.744;7.358;2024-02-21T01:33:56;6.90;99.90
37310;DHT22;23195;47.744;7.358;2024-02-21T01:36:22;6.80;99.90
37310;DHT22;23195;47.744;7.358;2024-02-21T01:38:51;6.80;99.90
37310;DHT22;23195;47.744;7.358;2024-02-21T01:41:19;6.30;99.90
37310;DHT22;23195;47.744;7.358;2024-02-21T01:43:45;6.70;99.90
37310;DHT22;23195;47.744;7.358;2024-02-21T01:46:11;6.70;99.90
37310;DHT22;23195;47.744;7.358;2024-02-21T01:48:37;6.70;99.90
37310;DHT22;23195;47.744;7.358;2024-02-21T01:51:04;6.70;99.90
37310;DHT22;23195;47.744;7.358;2024-02-21T01:53:40;6.80;99.90
37310;DHT22;23195;47.744;7.358;2024-02-21T01:56:08;6.70;99.90
37310;DHT22;23195;47.744;7.358;2024-02-21T01:58:37;6.70;99.90
37310;DHT22;23195;47.744;7.358;2024-02-21T02:01:03;6.70;99.90
37310;DHT22;23195;47.744;7.358;2024-02-21T02:03:32;6.70;99.90
37310;DHT22;23195;47.744;7.358;2024-02-21T02:05:58;6.70;99.90
37310;DHT22;23195;47.744;7.358;2024-02-21T02:08:24;6.70;99.90
37310;DHT22;23195;47.744;7.358;2024-02-21T02:10:51;6.70;99.90
37310;DHT22;23195;47.744;7.358;2024-02-21T02:13:17;6.60;99.90
37310;DHT22;23195;47.744;7.358;2024-02-21T02:15:49;6.70;99.90
37310;DHT22;23195;47.744;7.358;2024-02-21T02:18:16;7.50;99.90
37310;DHT22;23195;47.744;7.358;2024-02-21T02:20:43;6.50;99.90
37310;DHT22;23195;47.744;7.358;2024-02-21T02:23:29;7.10;99.90
37310;DHT22;23195;47.744;7.358;2024-02-21T02:25:55;5.80;99.90
37310;DHT22;23195;47.744;7.358;2024-02-21T02:28:24;6.40;99.90
37310;DHT22;23195;47.744;7.358;2024-02-21T02:30:50;6.40;99.90
37310;DHT22;23195;47.744;7.358;2024-02-21T02:33:16;6.40;99.90
37310;DHT22;23195;47.744;7.358;2024-02-21T02:35:45;6.40;99.90
37310;DHT22;23195;47.744;7.358;2024-02-21T02:38:11;6.40;99.90
37310;DHT22;23195;47.744;7.358;2024-02-21T02:40:39;6.40;99.90
37310;DHT22;23195;47.744;7.358;2024-02-21T02:43:07;6.40;99.90
37310;DHT22;23195;47.744;7.358;2024-02-21T02:45:33;6.30;99.90
37310;DHT22;23195;47.744;7.358;2024-02-21T02:48:00;6.30;99.90
37310;DHT22;23195;47.744;7.358;2024-02-21T02:50:26;6.30;99.90
37310;DHT22;23195;47.744;7.358;2024-02-21T02:52:53;6.30;99.90
37310;DHT22;23195;47.744;7.358;2024-02-21T02:55:19;5.30;99.90
37310;DHT22;23195;47.744;7.358;2024-02-21T02:57:46;6.10;99.90
37310;DHT22;23195;47.744;7.358;2024-02-21T03:00:12;6.10;99.90
37310;DHT22;23195;47.744;7.358;2024-02-21T03:02:40;5.60;99.90
37310;DHT22;23195;47.744;7.358;2024-02-21T03:05:13;6.00;99.90
37310;DHT22;23195;47.744;7.358;2024-02-21T03:07:42;6.00;99.90
37310;DHT22;23195;47.744;7.358;2024-02-21T03:10:09;5.90;99.90
37310;DHT22;23195;47.744;7.358;2024-02-21T03:12:35;5.90;99.90
37310;DHT22;23195;47.744;7.358;2024-02-21T03:15:01;5.90;99.90
37310;DHT22;23195;47.744;7.358;2024-02-21T03:17:26;5.70;99.90
37310;DHT22;23195;47.744;7.358;2024-02-21T03:19:53;5.70;99.90
37310;DHT22;23195;47.744;7.358;2024-02-21T03:22:21;5.60;99.90
37310;DHT22;23195;47.744;7.358;2024-02-21T03:24:47;5.60;99.90
37310;DHT22;23195;47.744;7.358;2024-02-21T03:27:16;5.50;99.90
37310;DHT22;23195;47.744;7.358;2024-02-21T03:29:41;5.50;99.90
37310;DHT22;23195;47.744;7.358;2024-02-21T03:32:07;5.50;99.90
37310;DHT22;23195;47.744;7.358;2024-02-21T03:34:33;5.40;99.90
37310;DHT22;23195;47.744;7.358;2024-02-21T03:36:59;5.40;99.90
37310;DHT22;23195;47.744;7.358;2024-02-21T03:39:25;5.30;99.90
37310;DHT22;23195;47.744;7.358;2024-02-21T03:41:51;5.30;99.90
37310;DHT22;23195;47.744;7.358;2024-02-21T03:44:20;5.30;99.90
37310;DHT22;23195;47.744;7.358;2024-02-21T03:46:46;5.40;99.90
37310;DHT22;23195;47.744;7.358;2024-02-21T03:49:11;5.40;99.90
37310;DHT22;23195;47.744;7.358;2024-02-21T03:51:37;5.40;99.90
37310;DHT22;23195;47.744;7.358;2024-02-21T03:54:03;5.40;99.90
37310;DHT22;23195;47.744;7.358;2024-02-21T03:56:32;5.40;99.90
37310;DHT22;23195;47.744;7.358;2024-02-21T03:58:58;5.40;99.90
37310;DHT22;23195;47.744;7.358;2024-02-21T04:01:24;5.40;99.90
37310;DHT22;23195;47.744;7.358;2024-02-21T04:03:49;5.50;99.90
37310;DHT22;23195;47.744;7.358;2024-02-21T04:06:15;5.50;99.90
37310;DHT22;23195;47.744;7.358;2024-02-21T04:08:41;5.50;99.90
37310;DHT22;23195;47.744;7.358;2024-02-21T04:11:07;5.60;99.90
37310;DHT22;23195;47.744;7.358;2024-02-21T04:13:32;5.50;99.90
37310;DHT22;23195;47.744;7.358;2024-02-21T04:15:58;5.60;99.90
37310;DHT22;23195;47.744;7.358;2024-02-21T04:18:24;5.60;99.90
37310;DHT22;23195;47.744;7.358;2024-02-21T04:20:51;5.60;99.90
37310;DHT22;23195;47.744;7.358;2024-02-21T04:23:17;5.60;99.90
37310;DHT22;23195;47.744;7.358;2024-02-21T04:25:43;5.60;99.90
37310;DHT22;23195;47.744;7.358;2024-02-21T04:28:08;6.30;99.90
37310;DHT22;23195;47.744;7.358;2024-02-21T04:30:34;5.50;99.90
37310;DHT22;23195;47.744;7.358;2024-02-21T04:33:00;5.50;99.90
37310;DHT22;23195;47.744;7.358;2024-02-21T04:35:26;5.50;99.90
37310;DHT22;23195;47.744;7.358;2024-02-21T04:37:52;5.50;99.90
37310;DHT22;23195;47.744;7.358;2024-02-21T04:40:17;5.50;99.90
37310;DHT22;23195;47.744;7.358;2024-02-21T04:42:44;5.50;99.90
37310;DHT22;23195;47.744;7.358;2024-02-21T04:45:12;5.50;99.90
37310;DHT22;23195;47.744;7.358;2024-02-21T04:47:38;5.50;99.90
37310;DHT22;23195;47.744;7.358;2024-02-21T04:50:04;5.50;99.90
37310;DHT22;23195;47.744;7.358;2024-02-21T04:52:30;5.40;99.90
37310;DHT22;23195;47.744;7.358;2024-02-21T04:54:58;5.40;99.90
37310;DHT22;23195;47.744;7.358;2024-02-21T04:57:24;5.50;99.90
37310;DHT22;23195;47.744;7.358;2024-02-21T04:59:50;5.40;99.90
37310;DHT22;23195;47.744;7.358;2024-02-21T05:02:19;5.30;99.90
37310;DHT22;23195;47.744;7.358;2024-02-21T05:04:53;5.20;99.90
37310;DHT22;23195;47.744;7.358;2024-02-21T05:07:19;5.20;99.90
37310;DHT22;23195;47.744;7.358;2024-02-21T05:09:47;5.10;99.90
37310;DHT22;23195;47.744;7.358;2024-02-21T05:12:13;4.90;99.90
37310;DHT22;23195;47.744;7.358;2024-02-21T05:14:38;4.90;99.90
37310;DHT22;23195;47.744;7.358;2024-02-21T05:17:07;3.80;99.90
37310;DHT22;23195;47.744;7.358;2024-02-21T05:19:33;4.80;99.90
37310;DHT22;23195;47.744;7.358;2024-02-21T05:21:59;4.80;99.90
37310;DHT22;23195;47.744;7.358;2024-02-21T05:24:25;4.80;99.90
37310;DHT22;23195;47.744;7.358;2024-02-21T05:26:51;4.80;99.90
37310;DHT22;23195;47.744;7.358;2024-02-21T05:29:17;4.90;99.90
37310;DHT22;23195;47.744;7.358;2024-02-21T05:34:18;4.90;99.90
37310;DHT22;23195;47.744;7.358;2024-02-21T05:36:45;4.90;99.90
37310;DHT22;23195;47.744;7.358;2024-02-21T05:39:11;4.90;99.90
37310;DHT22;23195;47.744;7.358;2024-02-21T05:41:40;4.90;99.90
37310;DHT22;23195;47.744;7.358;2024-02-21T05:44:05;5.00;99.90
37310;DHT22;23195;47.744;7.358;2024-02-21T05:46:32;5.00;99.90
37310;DHT22;23195;47.744;7.358;2024-02-21T05:48:57;5.00;99.90
37310;DHT22;23195;47.744;7.358;2024-02-21T05:51:23;5.00;99.90
37310;DHT22;23195;47.744;7.358;2024-02-21T05:53:49;4.70;99.90
37310;DHT22;23195;47.744;7.358;2024-02-21T05:56:15;4.90;99.90
37310;DHT22;23195;47.744;7.358;2024-02-21T05:58:41;4.90;99.90
37310;DHT22;23195;47.744;7.358;2024-02-21T06:01:07;4.90;99.90
37310;DHT22;23195;47.744;7.358;2024-02-21T06:03:34;4.80;99.90
37310;DHT22;23195;47.744;7.358;2024-02-21T06:06:00;4.80;99.90
37310;DHT22;23195;47.744;7.358;2024-02-21T06:08:26;4.90;99.90
37310;DHT22;23195;47.744;7.358;2024-02-21T06:10:52;4.90;99.90
37310;DHT22;23195;47.744;7.358;2024-02-21T06:13:20;4.90;99.90
37310;DHT22;23195;47.744;7.358;2024-02-21T06:15:47;5.00;99.90
37310;DHT22;23195;47.744;7.358;2024-02-21T06:18:19;5.00;99.90
37310;DHT22;23195;47.744;7.358;2024-02-21T06:20:45;4.50;99.90
37310;DHT22;23195;47.744;7.358;2024-02-21T06:23:19;5.10;99.90
37310;DHT22;23195;47.744;7.358;2024-02-21T06:25:47;5.10;99.90
37310;DHT22;23195;47.744;7.358;2024-02-21T06:28:13;5.50;99.90
37310;DHT22;23195;47.744;7.358;2024-02-21T06:30:40;5.20;99.90
37310;DHT22;23195;47.744;7.358;2024-02-21T06:33:08;5.30;99.90
37310;DHT22;23195;47.744;7.358;2024-02-21T06:35:34;5.30;99.90
37310;DHT22;23195;47.744;7.358;2024-02-21T06:38:00;5.30;99.90
37310;DHT22;23195;47.744;7.358;2024-02-21T06:40:26;5.30;99.90
37310;DHT22;23195;47.744;7.358;2024-02-21T06:42:52;5.40;99.90
37310;DHT22;23195;47.744;7.358;2024-02-21T06:45:17;5.50;99.90
37310;DHT22;23195;47.744;7.358;2024-02-21T06:47:43;5.50;99.90
37310;DHT22;23195;47.744;7.358;2024-02-21T06:50:09;5.50;99.90
37310;DHT22;23195;47.744;7.358;2024-02-21T06:52:36;5.60;99.90
37310;DHT22;23195;47.744;7.358;2024-02-21T06:55:02;5.70;99.90
37310;DHT22;23195;47.744;7.358;2024-02-21T06:57:29;5.70;99.90
37310;DHT22;23195;47.744;7.358;2024-02-21T06:59:58;4.90;99.90
37310;DHT22;23195;47.744;7.358;2024-02-21T07:02:23;5.80;99.90
37310;DHT22;23195;47.744;7.358;2024-02-21T07:04:49;5.80;99.90
37310;DHT22;23195;47.744;7.358;2024-02-21T07:07:15;5.90;99.90
37310;DHT22;23195;47.744;7.358;2024-02-21T07:09:41;7.10;99.90
37310;DHT22;23195;47.744;7.358;2024-02-21T07:12:07;6.00;99.90
37310;DHT22;23195;47.744;7.358;2024-02-21T07:14:33;6.10;99.90
37310;DHT22;23195;47.744;7.358;2024-02-21T07:16:59;6.20;99.90
37310;DHT22;23195;47.744;7.358;2024-02-21T07:19:24;6.30;99.90
37310;DHT22;23195;47.744;7.358;2024-02-21T07:21:50;6.30;99.90
37310;DHT22;23195;47.744;7.358;2024-02-21T07:24:16;6.40;99.90
37310;DHT22;23195;47.744;7.358;2024-02-21T07:26:44;6.50;99.90
37310;DHT22;23195;47.744;7.358;2024-02-21T07:29:10;6.50;99.90
37310;DHT22;23195;47.744;7.358;2024-02-21T07:31:41;6.60;99.90
37310;DHT22;23195;47.744;7.358;2024-02-21T07:34:06;6.70;99.90
37310;DHT22;23195;47.744;7.358;2024-02-21T07:36:32;6.70;99.90
37310;DHT22;23195;47.744;7.358;2024-02-21T07:38:58;6.20;99.90
37310;DHT22;23195;47.744;7.358;2024-02-21T07:41:25;6.40;99.90
37310;DHT22;23195;47.744;7.358;2024-02-21T07:43:51;7.00;99.90
37310;DHT22;23195;47.744;7.358;2024-02-21T07:46:20;7.00;99.90
37310;DHT22;23195;47.744;7.358;2024-02-21T07:48:46;7.20;99.90
37310;DHT22;23195;47.744;7.358;2024-02-21T07:51:12;7.10;99.90
37310;DHT22;23195;47.744;7.358;2024-02-21T07:53:41;7.30;99.90
37310;DHT22;23195;47.744;7.358;2024-02-21T07:56:11;7.40;99.90
37310;DHT22;23195;47.744;7.358;2024-02-21T07:58:36;7.40;99.90
37310;DHT22;23195;47.744;7.358;2024-02-21T08:01:02;6.50;99.90
37310;DHT22;23195;47.744;7.358;2024-02-21T08:03:28;7.60;99.90
37310;DHT22;23195;47.744;7.358;2024-02-21T08:05:54;7.60;99.90
37310;DHT22;23195;47.744;7.358;2024-02-21T08:08:20;7.70;99.90
37310;DHT22;23195;47.744;7.358;2024-02-21T08:10:50;7.60;99.90
37310;DHT22;23195;47.744;7.358;2024-02-21T08:13:15;8.00;99.90
37310;DHT22;23195;47.744;7.358;2024-02-21T08:15:41;8.10;99.90
37310;DHT22;23195;47.744;7.358;2024-02-21T08:18:08;8.50;99.90
37310;DHT22;23195;47.744;7.358;2024-02-21T08:20:34;8.80;99.90
37310;DHT22;23195;47.744;7.358;2024-02-21T08:23:00;9.20;99.90
37310;DHT22;23195;47.744;7.358;2024-02-21T08:25:26;9.30;99.90
37310;DHT22;23195;47.744;7.358;2024-02-21T08:27:57;9.50;99.90
37310;DHT22;23195;47.744;7.358;2024-02-21T08:30:22;9.40;99.90
37310;DHT22;23195;47.744;7.358;2024-02-21T08:32:48;9.40;99.90
37310;DHT22;23195;47.744;7.358;2024-02-21T08:35:14;9.40;99.90
37310;DHT22;23195;47.744;7.358;2024-02-21T08:37:40;9.40;99.90
37310;DHT22;23195;47.744;7.358;2024-02-21T08:40:06;9.50;99.90
37310;DHT22;23195;47.744;7.358;2024-02-21T08:42:39;9.50;99.90
37310;DHT22;23195;47.744;7.358;2024-02-21T08:45:05;9.30;99.90
37310;DHT22;23195;47.744;7.358;2024-02-21T08:47:31;9.10;99.90
37310;DHT22;23195;47.744;7.358;2024-02-21T08:49:57;9.10;99.90
37310;DHT22;23195;47.744;7.358;2024-02-21T08:52:22;9.10;99.90
37310;DHT22;23195;47.744;7.358;2024-02-21T08:54:48;9.00;99.90
37310;DHT22;23195;47.744;7.358;2024-02-21T08:57:14;9.20;99.90
37310;DHT22;23195;47.744;7.358;2024-02-21T08:59:40;9.20;99.90
37310;DHT22;23195;47.744;7.358;2024-02-21T09:02:06;9.20;99.90
37310;DHT22;23195;47.744;7.358;2024-02-21T09:04:33;9.30;99.90
37310;DHT22;23195;47.744;7.358;2024-02-21T09:07:06;9.40;99.90
37310;DHT22;23195;47.744;7.358;2024-02-21T09:09:32;9.30;99.90
37310;DHT22;23195;47.744;7.358;2024-02-21T09:11:59;9.70;99.90
37310;DHT22;23195;47.744;7.358;2024-02-21T09:14:32;9.50;99.90
37310;DHT22;23195;47.744;7.358;2024-02-21T09:16:57;9.60;99.90
37310;DHT22;23195;47.744;7.358;2024-02-21T09:19:23;9.50;99.90
37310;DHT22;23195;47.744;7.358;2024-02-21T09:21:49;9.70;99.90
37310;DHT22;23195;47.744;7.358;2024-02-21T09:24:17;9.70;99.90
37310;DHT22;23195;47.744;7.358;2024-02-21T09:26:46;9.90;99.90
37310;DHT22;23195;47.744;7.358;2024-02-21T09:29:12;9.90;99.90
37310;DHT22;23195;47.744;7.358;2024-02-21T09:31:38;10.20;99.90
37310;DHT22;23195;47.744;7.358;2024-02-21T09:34:07;10.30;99.90
37310;DHT22;23195;47.744;7.358;2024-02-21T09:36:33;10.20;99.90
37310;DHT22;23195;47.744;7.358;2024-02-21T09:38:59;10.20;99.90
37310;DHT22;23195;47.744;7.358;2024-02-21T09:41:28;10.80;99.90
37310;DHT22;23195;47.744;7.358;2024-02-21T09:43:54;10.60;99.90
37310;DHT22;23195;47.744;7.358;2024-02-21T09:46:37;10.70;99.90
37310;DHT22;23195;47.744;7.358;2024-02-21T09:51:51;10.90;99.90
37310;DHT22;23195;47.744;7.358;2024-02-21T09:54:18;10.80;99.90
37310;DHT22;23195;47.744;7.358;2024-02-21T09:56:46;11.00;99.90
37310;DHT22;23195;47.744;7.358;2024-02-21T09:59:15;10.80;99.90
37310;DHT22;23195;47.744;7.358;2024-02-21T10:01:42;11.00;99.90
37310;DHT22;23195;47.744;7.358;2024-02-21T10:04:09;11.00;99.90
37310;DHT22;23195;47.744;7.358;2024-02-21T10:06:35;10.90;99.90
37310;DHT22;23195;47.744;7.358;2024-02-21T10:09:03;10.60;99.90
37310;DHT22;23195;47.744;7.358;2024-02-21T10:11:32;10.60;99.90
37310;DHT22;23195;47.744;7.358;2024-02-21T10:14:08;10.70;99.90
37310;DHT22;23195;47.744;7.358;2024-02-21T10:16:34;10.60;99.90
37310;DHT22;23195;47.744;7.358;2024-02-21T10:19:03;10.50;99.90
37310;DHT22;23195;47.744;7.358;2024-02-21T10:21:29;10.80;99.90
37310;DHT22;23195;47.744;7.358;2024-02-21T10:24:01;11.20;99.90
37310;DHT22;23195;47.744;7.358;2024-02-21T10:26:30;11.40;99.90
37310;DHT22;23195;47.744;7.358;2024-02-21T10:28:56;11.50;99.90
37310;DHT22;23195;47.744;7.358;2024-02-21T10:31:27;11.60;99.90
37310;DHT22;23195;47.744;7.358;2024-02-21T10:34:02;11.70;99.90
37310;DHT22;23195;47.744;7.358;2024-02-21T10:36:28;11.60;99.90
37310;DHT22;23195;47.744;7.358;2024-02-21T10:38:57;11.80;99.90
37310;DHT22;23195;47.744;7.358;2024-02-21T10:41:31;11.90;99.90
37310;DHT22;23195;47.744;7.358;2024-02-21T10:43:57;11.80;99.90
37310;DHT22;23195;47.744;7.358;2024-02-21T10:46:35;11.90;99.90
37310;DHT22;23195;47.744;7.358;2024-02-21T10:49:25;11.90;99.90
37310;DHT22;23195;47.744;7.358;2024-02-21T10:51:55;11.90;99.90
37310;DHT22;23195;47.744;7.358;2024-02-21T10:55:16;12.00;99.90
37310;DHT22;23195;47.744;7.358;2024-02-21T10:57:32;12.20;99.90
37310;DHT22;23195;47.744;7.358;2024-02-21T10:59:59;12.40;99.90
37310;DHT22;23195;47.744;7.358;2024-02-21T11:02:26;12.40;99.90
37310;DHT22;23195;47.744;7.358;2024-02-21T11:04:55;12.40;99.90
37310;DHT22;23195;47.744;7.358;2024-02-21T11:07:21;12.20;99.90
37310;DHT22;23195;47.744;7.358;2024-02-21T11:09:53;12.20;99.90
37310;DHT22;23195;47.744;7.358;2024-02-21T11:12:25;11.80;99.90
37310;DHT22;23195;47.744;7.358;2024-02-21T11:14:53;12.30;99.90
37310;DHT22;23195;47.744;7.358;2024-02-21T11:17:30;12.40;99.90
37310;DHT22;23195;47.744;7.358;2024-02-21T11:19:56;12.50;99.90
37310;DHT22;23195;47.744;7.358;2024-02-21T11:22:21;12.60;99.90
37310;DHT22;23195;47.744;7.358;2024-02-21T11:24:50;12.90;99.90
37310;DHT22;23195;47.744;7.358;2024-02-21T11:27:19;12.80;99.90
37310;DHT22;23195;47.744;7.358;2024-02-21T11:29:56;12.80;99.90
37310;DHT22;23195;47.744;7.358;2024-02-21T11:32:24;12.70;99.90
37310;DHT22;23195;47.744;7.358;2024-02-21T11:34:57;12.70;99.90
37310;DHT22;23195;47.744;7.358;2024-02-21T11:37:54;12.70;99.90
37310;DHT22;23195;47.744;7.358;2024-02-21T11:40:20;12.80;99.90
37310;DHT22;23195;47.744;7.358;2024-02-21T11:42:46;12.90;99.90
37310;DHT22;23195;47.744;7.358;2024-02-21T11:45:15;13.10;99.90
37310;DHT22;23195;47.744;7.358;2024-02-21T11:47:42;13.20;99.90
37310;DHT22;23195;47.744;7.358;2024-02-21T11:50:14;13.10;99.70
37310;DHT22;23195;47.744;7.358;2024-02-21T11:52:40;13.10;99.90
37310;DHT22;23195;47.744;7.358;2024-02-21T11:55:09;13.20;99.50
37310;DHT22;23195;47.744;7.358;2024-02-21T11:57:35;13.30;99.70
37310;DHT22;23195;47.744;7.358;2024-02-21T12:00:13;13.40;99.60
37310;DHT22;23195;47.744;7.358;2024-02-21T12:02:40;13.60;99.60
37310;DHT22;23195;47.744;7.358;2024-02-21T12:05:06;13.40;99.30
37310;DHT22;23195;47.744;7.358;2024-02-21T12:07:32;13.40;99.30
37310;DHT22;23195;47.744;7.358;2024-02-21T12:10:21;13.50;99.30
37310;DHT22;23195;47.744;7.358;2024-02-21T12:12:47;13.60;99.20
37310;DHT22;23195;47.744;7.358;2024-02-21T12:15:18;13.90;99.20
37310;DHT22;23195;47.744;7.358;2024-02-21T12:17:48;13.70;99.30
37310;DHT22;23195;47.744;7.358;2024-02-21T12:20:20;13.70;99.00
37310;DHT22;23195;47.744;7.358;2024-02-21T12:22:52;13.50;99.40
37310;DHT22;23195;47.744;7.358;2024-02-21T12:25:37;13.40;99.70
37310;DHT22;23195;47.744;7.358;2024-02-21T12:28:05;13.50;99.20
37310;DHT22;23195;47.744;7.358;2024-02-21T12:30:31;13.60;99.50
37310;DHT22;23195;47.744;7.358;2024-02-21T12:33:01;13.40;98.70
37310;DHT22;23195;47.744;7.358;2024-02-21T12:35:27;13.40;99.00
37310;DHT22;23195;47.744;7.358;2024-02-21T12:37:53;13.50;98.90
37310;DHT22;23195;47.744;7.358;2024-02-21T12:40:19;13.40;98.90
37310;DHT22;23195;47.744;7.358;2024-02-21T12:42:45;13.20;99.10
37310;DHT22;23195;47.744;7.358;2024-02-21T12:45:13;13.20;99.10
37310;DHT22;23195;47.744;7.358;2024-02-21T12:47:40;13.20;99.30
37310;DHT22;23195;47.744;7.358;2024-02-21T12:50:06;13.10;99.10
37310;DHT22;23195;47.744;7.358;2024-02-21T12:52:32;13.30;99.50
37310;DHT22;23195;47.744;7.358;2024-02-21T12:54:58;13.40;99.30
37310;DHT22;23195;47.744;7.358;2024-02-21T12:57:24;13.40;98.70
37310;DHT22;23195;47.744;7.358;2024-02-21T12:59:53;13.40;98.30
37310;DHT22;23195;47.744;7.358;2024-02-21T13:02:18;13.20;98.70
37310;DHT22;23195;47.744;7.358;2024-02-21T13:04:45;13.40;99.20
37310;DHT22;23195;47.744;7.358;2024-02-21T13:07:11;13.40;98.90
37310;DHT22;23195;47.744;7.358;2024-02-21T13:09:36;13.40;99.00
37310;DHT22;23195;47.744;7.358;2024-02-21T13:12:02;13.50;99.20
37310;DHT22;23195;47.744;7.358;2024-02-21T13:14:31;13.40;98.90
37310;DHT22;23195;47.744;7.358;2024-02-21T13:16:58;13.50;99.10
37310;DHT22;23195;47.744;7.358;2024-02-21T13:19:24;13.40;99.40
37310;DHT22;23195;47.744;7.358;2024-02-21T13:21:50;13.40;99.00
37310;DHT22;23195;47.744;7.358;2024-02-21T13:24:15;13.40;98.80
37310;DHT22;23195;47.744;7.358;2024-02-21T13:26:41;13.50;99.30
37310;DHT22;23195;47.744;7.358;2024-02-21T13:29:07;13.60;98.80
37310;DHT22;23195;47.744;7.358;2024-02-21T13:31:33;13.60;98.50
37310;DHT22;23195;47.744;7.358;2024-02-21T13:33:58;13.50;98.40
37310;DHT22;23195;47.744;7.358;2024-02-21T13:36:24;13.40;98.60
37310;DHT22;23195;47.744;7.358;2024-02-21T13:38:51;13.30;98.30
37310;DHT22;23195;47.744;7.358;2024-02-21T13:41:18;13.30;98.70
37310;DHT22;23195;47.744;7.358;2024-02-21T13:43:44;13.30;98.30
37310;DHT22;23195;47.744;7.358;2024-02-21T13:46:12;13.20;98.20
37310;DHT22;23195;47.744;7.358;2024-02-21T13:48:37;13.10;97.60
37310;DHT22;23195;47.744;7.358;2024-02-21T13:51:04;13.10;97.90
37310;DHT22;23195;47.744;7.358;2024-02-21T13:53:29;13.20;98.10
37310;DHT22;23195;47.744;7.358;2024-02-21T13:55:55;13.10;98.50
37310;DHT22;23195;47.744;7.358;2024-02-21T13:58:21;13.20;98.60
37310;DHT22;23195;47.744;7.358;2024-02-21T14:00:47;13.10;98.60
37310;DHT22;23195;47.744;7.358;2024-02-21T14:03:13;13.30;98.80
37310;DHT22;23195;47.744;7.358;2024-02-21T14:05:39;13.40;99.10
37310;DHT22;23195;47.744;7.358;2024-02-21T14:08:09;13.40;99.00
37310;DHT22;23195;47.744;7.358;2024-02-21T14:10:34;13.40;98.80
37310;DHT22;23195;47.744;7.358;2024-02-21T14:13:00;13.40;98.50
37310;DHT22;23195;47.744;7.358;2024-02-21T14:15:26;13.40;98.20
37310;DHT22;23195;47.744;7.358;2024-02-21T14:17:52;13.30;98.20
37310;DHT22;23195;47.744;7.358;2024-02-21T14:20:18;13.30;98.00
37310;DHT22;23195;47.744;7.358;2024-02-21T14:22:44;13.40;97.40
37310;DHT22;23195;47.744;7.358;2024-02-21T14:25:09;13.40;97.70
37310;DHT22;23195;47.744;7.358;2024-02-21T14:27:35;13.40;97.70
37310;DHT22;23195;47.744;7.358;2024-02-21T14:30:04;13.40;97.80
37310;DHT22;23195;47.744;7.358;2024-02-21T14:32:30;13.40;98.00
37310;DHT22;23195;47.744;7.358;2024-02-21T14:34:56;13.40;98.20
37310;DHT22;23195;47.744;7.358;2024-02-21T14:37:22;13.40;97.40
37310;DHT22;23195;47.744;7.358;2024-02-21T14:39:47;13.30;97.00
37310;DHT22;23195;47.744;7.358;2024-02-21T14:42:13;13.20;97.30
37310;DHT22;23195;47.744;7.358;2024-02-21T14:44:42;13.10;97.70
37310;DHT22;23195;47.744;7.358;2024-02-21T14:47:07;13.00;97.70
37310;DHT22;23195;47.744;7.358;2024-02-21T14:49:33;13.10;97.80
37310;DHT22;23195;47.744;7.358;2024-02-21T14:51:59;13.20;97.90
37310;DHT22;23195;47.744;7.358;2024-02-21T14:54:25;13.10;97.90
37310;DHT22;23195;47.744;7.358;2024-02-21T14:56:51;13.00;98.00
37310;DHT22;23195;47.744;7.358;2024-02-21T14:59:17;12.90;98.10
37310;DHT22;23195;47.744;7.358;2024-02-21T15:01:45;13.00;98.10
37310;DHT22;23195;47.744;7.358;2024-02-21T15:04:11;12.90;98.10
37310;DHT22;23195;47.744;7.358;2024-02-21T15:06:36;12.90;98.40
37310;DHT22;23195;47.744;7.358;2024-02-21T15:09:03;12.90;98.30
37310;DHT22;23195;47.744;7.358;2024-02-21T15:11:32;12.80;98.70
37310;DHT22;23195;47.744;7.358;2024-02-21T15:13:58;12.80;98.80
37310;DHT22;23195;47.744;7.358;2024-02-21T15:16:24;12.70;98.70
37310;DHT22;23195;47.744;7.358;2024-02-21T15:18:50;12.70;98.90
37310;DHT22;23195;47.744;7.358;2024-02-21T15:21:16;12.80;99.10
37310;DHT22;23195;47.744;7.358;2024-02-21T15:23:42;12.70;99.30
37310;DHT22;23195;47.744;7.358;2024-02-21T15:26:08;12.70;99.30
37310;DHT22;23195;47.744;7.358;2024-02-21T15:28:34;12.70;99.40
37310;DHT22;23195;47.744;7.358;2024-02-21T15:31:00;12.70;99.50
37310;DHT22;23195;47.744;7.358;2024-02-21T15:33:25;12.50;99.70
37310;DHT22;23195;47.744;7.358;2024-02-21T15:35:52;12.50;99.80
37310;DHT22;23195;47.744;7.358;2024-02-21T15:38:19;12.40;99.80
37310;DHT22;23195;47.744;7.358;2024-02-21T15:40:45;11.00;99.30
37310;DHT22;23195;47.744;7.358;2024-02-21T15:43:11;12.30;99.90
37310;DHT22;23195;47.744;7.358;2024-02-21T15:45:37;12.30;99.90